createdAt,value
2023-03-11T00:00:56.220Z,2.20
2023-03-11T00:03:22.646Z,2.10
2023-03-11T00:05:49.119Z,2.10
2023-03-11T00:08:15.516Z,2.10
2023-03-11T00:10:41.936Z,2.10
2023-03-11T00:13:08.391Z,2.10
2023-03-11T00:15:34.806Z,2.10
2023-03-11T00:18:01.256Z,2.10
2023-03-11T00:20:27.726Z,2.10
2023-03-11T00:22:54.128Z,2.10
2023-03-11T00:25:20.537Z,2.10
2023-03-11T00:27:46.955Z,2.10
2023-03-11T00:30:13.374Z,2.10
2023-03-11T00:32:39.890Z,2.00
2023-03-11T00:35:06.320Z,1.90
2023-03-11T00:37:32.738Z,1.90
2023-03-11T00:39:59.112Z,1.90
2023-03-11T00:42:25.509Z,1.90
2023-03-11T00:44:51.905Z,1.90
2023-03-11T00:47:18.285Z,1.90
2023-03-11T00:49:44.650Z,2.00
2023-03-11T00:52:11.096Z,2.00
2023-03-11T00:54:37.517Z,2.00
2023-03-11T00:57:03.933Z,2.00
2023-03-11T00:59:30.357Z,2.00
2023-03-11T01:01:56.790Z,2.10
2023-03-11T01:04:23.282Z,2.10
2023-03-11T01:06:49.686Z,2.10
2023-03-11T01:09:16.089Z,2.10
2023-03-11T01:11:42.542Z,2.10
2023-03-11T01:14:09.104Z,2.10
2023-03-11T01:16:35.568Z,2.00
2023-03-11T01:19:02.025Z,2.10
2023-03-11T01:21:28.401Z,2.00
2023-03-11T01:23:54.780Z,2.00
2023-03-11T01:26:21.227Z,2.00
2023-03-11T01:28:47.649Z,2.00
2023-03-11T01:31:14.106Z,2.00
2023-03-11T01:33:40.515Z,2.00
2023-03-11T01:36:06.930Z,2.00
2023-03-11T01:38:33.323Z,2.00
2023-03-11T01:40:59.699Z,2.00
2023-03-11T01:43:26.130Z,2.00
2023-03-11T01:45:52.509Z,2.00
2023-03-11T01:48:18.903Z,2.00
2023-03-11T01:50:45.280Z,2.00
2023-03-11T01:53:11.711Z,2.00
2023-03-11T01:55:38.162Z,2.00
2023-03-11T01:58:04.561Z,2.00
2023-03-11T02:00:30.956Z,2.00
2023-03-11T02:02:57.458Z,2.00
2023-03-11T02:05:23.961Z,2.00
2023-03-11T02:07:50.356Z,2.00
2023-03-11T02:10:16.721Z,2.00
2023-03-11T02:12:43.165Z,2.10
2023-03-11T02:15:09.717Z,2.00
2023-03-11T02:17:36.181Z,2.00
2023-03-11T02:20:02.623Z,2.00
2023-03-11T02:22:29.070Z,2.00
2023-03-11T02:24:55.565Z,2.00
2023-03-11T02:27:21.982Z,2.00
2023-03-11T02:29:48.362Z,2.00
2023-03-11T02:32:14.845Z,2.00
2023-03-11T02:34:41.236Z,2.00
2023-03-11T02:37:07.675Z,2.00
2023-03-11T02:39:34.088Z,1.90
2023-03-11T02:42:00.475Z,1.90
2023-03-11T02:44:26.836Z,1.90
2023-03-11T02:46:53.284Z,1.90
2023-03-11T02:49:19.709Z,1.90
2023-03-11T02:51:46.107Z,1.80
2023-03-11T02:54:12.489Z,1.80
2023-03-11T02:56:39.059Z,1.80
2023-03-11T02:59:05.444Z,1.80
2023-03-11T03:01:31.889Z,1.80
2023-03-11T03:03:58.282Z,1.80
2023-03-11T03:06:24.722Z,1.80
2023-03-11T03:08:51.115Z,1.80
2023-03-11T03:11:17.577Z,1.70
2023-03-11T03:13:43.985Z,1.80
2023-03-11T03:16:10.398Z,1.70
2023-03-11T03:18:36.857Z,1.80
2023-03-11T03:21:03.243Z,1.80
2023-03-11T03:23:29.623Z,1.80
2023-03-11T03:25:56.004Z,1.90
2023-03-11T03:28:22.460Z,1.90
2023-03-11T03:30:48.929Z,1.90
2023-03-11T03:33:15.361Z,1.90
2023-03-11T03:35:41.846Z,2.00
2023-03-11T03:38:08.285Z,2.00
2023-03-11T03:40:34.696Z,2.00
2023-03-11T03:43:01.165Z,2.00
2023-03-11T03:45:27.595Z,2.00
2023-03-11T03:47:54.085Z,2.00
2023-03-11T03:50:20.555Z,2.00
2023-03-11T03:52:46.961Z,2.00
2023-03-11T03:55:13.414Z,2.00
2023-03-11T03:57:39.866Z,2.00
2023-03-11T04:00:06.304Z,2.00
2023-03-11T04:02:32.807Z,2.00
2023-03-11T04:04:59.364Z,2.00
2023-03-11T04:07:25.754Z,2.00
2023-03-11T04:09:52.126Z,2.00
2023-03-11T04:12:18.528Z,2.00
2023-03-11T04:14:44.945Z,2.00
2023-03-11T04:17:11.316Z,2.00
2023-03-11T04:19:37.753Z,1.90
2023-03-11T04:22:04.157Z,1.90
2023-03-11T04:24:30.546Z,1.90
2023-03-11T04:26:56.966Z,1.90
2023-03-11T04:29:23.409Z,1.80
2023-03-11T04:31:49.837Z,1.80
2023-03-11T04:34:16.234Z,1.70
2023-03-11T04:36:42.657Z,1.70
2023-03-11T04:39:09.401Z,1.60
2023-03-11T04:41:35.839Z,1.60
2023-03-11T04:44:02.291Z,1.60
2023-03-11T04:46:28.730Z,1.50
2023-03-11T04:48:55.206Z,1.60
2023-03-11T04:51:21.641Z,1.60
2023-03-11T04:53:48.102Z,1.60
2023-03-11T04:56:14.518Z,1.70
2023-03-11T04:58:40.980Z,1.70
2023-03-11T05:01:07.396Z,1.70
2023-03-11T05:03:33.824Z,1.60
2023-03-11T05:06:00.294Z,1.60
2023-03-11T05:08:26.684Z,1.60
2023-03-11T05:10:53.108Z,1.60
2023-03-11T05:13:19.507Z,1.60
2023-03-11T05:15:45.943Z,1.60
2023-03-11T05:18:12.481Z,1.60
2023-03-11T05:20:38.924Z,1.50
2023-03-11T05:23:05.316Z,1.50
2023-03-11T05:25:31.740Z,1.50
2023-03-11T05:27:58.212Z,1.50
2023-03-11T05:30:24.653Z,1.50
2023-03-11T05:32:51.109Z,1.50
2023-03-11T05:35:17.578Z,1.60
2023-03-11T05:37:43.957Z,1.60
2023-03-11T05:40:10.340Z,1.60
2023-03-11T05:42:36.774Z,1.60
2023-03-11T05:45:03.171Z,1.70
2023-03-11T05:47:29.571Z,1.70
2023-03-11T05:49:55.987Z,1.60
2023-03-11T05:52:22.416Z,1.60
2023-03-11T05:54:48.829Z,1.70
2023-03-11T05:57:15.209Z,1.60
2023-03-11T05:59:41.612Z,1.70
2023-03-11T06:02:08.013Z,1.70
2023-03-11T06:04:34.561Z,1.70
2023-03-11T06:07:01.208Z,1.60
2023-03-11T06:09:27.641Z,1.60
2023-03-11T06:11:54.093Z,1.60
2023-03-11T06:14:20.500Z,1.50
2023-03-11T06:16:46.922Z,1.50
2023-03-11T06:19:13.403Z,1.50
2023-03-11T06:21:39.824Z,1.50
2023-03-11T06:24:06.210Z,1.40
2023-03-11T06:26:32.651Z,1.30
2023-03-11T06:28:59.049Z,1.20
2023-03-11T06:31:25.591Z,1.10
2023-03-11T06:33:52.021Z,1.00
2023-03-11T06:36:18.415Z,0.90
2023-03-11T06:38:44.859Z,0.90
2023-03-11T06:41:11.324Z,1.00
2023-03-11T06:43:37.733Z,1.10
2023-03-11T06:46:04.166Z,1.10
2023-03-11T06:48:30.606Z,1.20
2023-03-11T06:50:57.083Z,1.30
2023-03-11T06:53:23.468Z,1.30
2023-03-11T06:55:49.900Z,1.30
2023-03-11T06:58:16.372Z,1.40
2023-03-11T07:00:42.880Z,1.40
2023-03-11T07:03:09.298Z,1.40
2023-03-11T07:05:35.723Z,1.40
2023-03-11T07:08:02.203Z,1.40
2023-03-11T07:10:28.663Z,1.50
2023-03-11T07:12:55.068Z,1.50
2023-03-11T07:15:21.527Z,1.60
2023-03-11T07:17:48.022Z,1.70
2023-03-11T07:20:14.472Z,1.70
2023-03-11T07:22:40.886Z,1.70
2023-03-11T07:25:07.318Z,1.80
2023-03-11T07:27:33.702Z,1.90
2023-03-11T07:30:00.145Z,1.90
2023-03-11T07:32:26.603Z,2.00
2023-03-11T07:34:53.083Z,2.10
2023-03-11T07:37:19.823Z,2.20
2023-03-11T07:39:46.351Z,2.30
2023-03-11T07:42:12.781Z,2.40
2023-03-11T07:44:39.172Z,2.40
2023-03-11T07:47:05.573Z,2.50
2023-03-11T07:49:31.946Z,2.60
2023-03-11T07:51:58.337Z,2.70
2023-03-11T07:54:24.782Z,2.80
2023-03-11T07:56:51.214Z,2.80
2023-03-11T07:59:17.643Z,2.90
2023-03-11T08:01:44.093Z,3.00
2023-03-11T08:04:12.920Z,3.10
2023-03-11T08:06:40.590Z,3.10
2023-03-11T08:09:07.073Z,3.20
2023-03-11T08:11:33.547Z,3.20
2023-03-11T08:14:02.034Z,3.20
2023-03-11T08:16:28.442Z,3.20
2023-03-11T08:18:54.822Z,3.20
2023-03-11T08:21:21.240Z,3.20
2023-03-11T08:23:47.737Z,3.30
2023-03-11T08:26:14.126Z,3.30
2023-03-11T08:28:40.572Z,3.40
2023-03-11T08:31:07.027Z,3.40
2023-03-11T08:33:33.426Z,3.50
2023-03-11T08:35:59.991Z,3.50
2023-03-11T08:38:26.653Z,3.60
2023-03-11T08:40:53.101Z,3.70
2023-03-11T08:43:19.665Z,3.70
2023-03-11T08:45:46.150Z,3.80
2023-03-11T08:48:12.633Z,4.00
2023-03-11T08:50:52.791Z,4.20
2023-03-11T08:53:20.562Z,4.40
2023-03-11T08:55:47.025Z,4.80
2023-03-11T08:58:13.413Z,5.00
2023-03-11T09:00:39.783Z,5.20
2023-03-11T09:03:06.343Z,5.50
2023-03-11T09:05:32.904Z,5.80
2023-03-11T09:07:59.416Z,6.00
2023-03-11T09:10:25.939Z,6.30
2023-03-11T09:12:52.438Z,6.50
2023-03-11T09:15:18.915Z,6.70
2023-03-11T09:17:45.322Z,6.80
2023-03-11T09:20:11.778Z,7.10
2023-03-11T09:22:38.297Z,7.30
2023-03-11T09:25:04.695Z,7.50
2023-03-11T09:27:31.079Z,7.60
2023-03-11T09:29:57.459Z,7.70
2023-03-11T09:32:23.858Z,7.80
2023-03-11T09:34:50.345Z,7.80
2023-03-11T09:37:16.808Z,7.80
2023-03-11T09:39:43.211Z,7.90
2023-03-11T09:42:09.702Z,8.00
2023-03-11T09:44:36.138Z,8.00
2023-03-11T09:47:02.695Z,8.00
2023-03-11T09:49:29.113Z,8.10
2023-03-11T09:51:55.541Z,8.10
2023-03-11T09:54:21.954Z,8.20
2023-03-11T09:56:48.440Z,8.30
2023-03-11T09:59:14.850Z,8.30
2023-03-11T10:01:41.405Z,8.30
2023-03-11T10:04:07.839Z,8.40
2023-03-11T10:06:34.244Z,8.60
2023-03-11T10:09:00.643Z,8.70
2023-03-11T10:11:27.033Z,8.70
2023-03-11T10:13:53.419Z,8.70
2023-03-11T10:16:19.904Z,8.60
2023-03-11T10:18:46.324Z,8.80
2023-03-11T10:21:12.727Z,8.80
2023-03-11T10:23:39.147Z,8.90
2023-03-11T10:26:05.591Z,9.00
2023-03-11T10:28:32.049Z,9.00
2023-03-11T10:30:58.443Z,8.90
2023-03-11T10:33:24.833Z,9.00
2023-03-11T10:35:51.241Z,9.10
2023-03-11T10:38:17.708Z,9.30
2023-03-11T10:40:44.164Z,9.50
2023-03-11T10:43:10.599Z,9.60
2023-03-11T10:45:37.114Z,9.70
2023-03-11T10:48:03.623Z,9.70
2023-03-11T10:50:30.061Z,9.80
2023-03-11T10:52:56.472Z,9.90
2023-03-11T10:55:22.867Z,10.10
2023-03-11T10:57:49.262Z,10.10
2023-03-11T11:00:15.678Z,10.10
2023-03-11T11:02:43.687Z,10.20
2023-03-11T11:05:10.266Z,10.30
2023-03-11T11:07:36.662Z,10.50
2023-03-11T11:10:03.062Z,10.60
2023-03-11T11:12:29.459Z,10.60
2023-03-11T11:14:55.916Z,10.60
2023-03-11T11:17:22.298Z,10.40
2023-03-11T11:19:48.778Z,10.40
2023-03-11T11:22:15.218Z,10.50
2023-03-11T11:24:41.668Z,10.50
2023-03-11T11:27:08.105Z,10.50
2023-03-11T11:29:34.535Z,10.30
2023-03-11T11:32:00.937Z,10.00
2023-03-11T11:34:27.361Z,9.80
2023-03-11T11:36:53.750Z,9.60
2023-03-11T11:39:20.108Z,9.60
2023-03-11T11:41:46.512Z,9.70
2023-03-11T11:44:12.922Z,9.70
2023-03-11T11:46:39.332Z,9.80
2023-03-11T11:49:05.737Z,10.10
2023-03-11T11:51:32.203Z,10.40
2023-03-11T11:53:58.673Z,10.50
2023-03-11T11:56:25.107Z,10.30
2023-03-11T11:58:51.538Z,10.30
2023-03-11T12:01:17.982Z,10.40
2023-03-11T12:03:44.462Z,10.20
2023-03-11T12:06:10.914Z,10.10
2023-03-11T12:08:37.351Z,10.10
2023-03-11T12:11:03.726Z,10.00
2023-03-11T12:13:30.154Z,10.00
2023-03-11T12:15:56.657Z,10.10
2023-03-11T12:18:23.122Z,10.30
2023-03-11T12:20:49.555Z,10.40
2023-03-11T12:23:15.957Z,10.50
2023-03-11T12:25:42.321Z,10.60
2023-03-11T12:28:08.802Z,10.80
2023-03-11T12:30:35.206Z,10.70
2023-03-11T12:33:01.583Z,10.40
2023-03-11T12:35:28.047Z,10.10
2023-03-11T12:37:54.478Z,10.10
2023-03-11T12:40:20.911Z,10.10
2023-03-11T12:42:47.390Z,10.10
2023-03-11T12:45:13.852Z,9.90
2023-03-11T12:47:40.259Z,9.60
2023-03-11T12:50:06.686Z,9.20
2023-03-11T12:52:33.140Z,9.10
2023-03-11T12:54:59.603Z,9.10
2023-03-11T12:57:26.033Z,9.20
2023-03-11T12:59:52.435Z,9.40
2023-03-11T13:02:18.862Z,9.50
2023-03-11T13:04:45.286Z,9.50
2023-03-11T13:07:11.691Z,9.40
2023-03-11T13:09:38.130Z,9.40
2023-03-11T13:12:04.550Z,9.60
2023-03-11T13:14:30.998Z,9.70
2023-03-11T13:16:57.388Z,9.80
2023-03-11T13:19:23.824Z,9.80
2023-03-11T13:21:50.213Z,9.80
2023-03-11T13:24:19.691Z,9.80
2023-03-11T13:26:46.110Z,9.90
2023-03-11T13:29:12.505Z,10.00
2023-03-11T13:31:39.140Z,10.00
2023-03-11T13:34:05.556Z,9.90
2023-03-11T13:36:31.975Z,9.90
2023-03-11T13:38:58.353Z,10.00
2023-03-11T13:41:24.746Z,10.10
2023-03-11T13:43:51.108Z,10.20
2023-03-11T13:46:17.590Z,10.40
2023-03-11T13:48:43.998Z,10.50
2023-03-11T13:51:10.392Z,10.60
2023-03-11T13:53:36.758Z,10.70
2023-03-11T13:56:03.193Z,10.90
2023-03-11T13:58:29.723Z,11.00
2023-03-11T14:00:56.171Z,10.80
2023-03-11T14:03:22.646Z,10.60
2023-03-11T14:05:49.103Z,10.40
2023-03-11T14:08:15.535Z,10.30
2023-03-11T14:10:42.022Z,10.20
2023-03-11T14:13:08.479Z,10.10
2023-03-11T14:15:34.884Z,10.00
2023-03-11T14:18:01.357Z,9.90
2023-03-11T14:20:27.900Z,9.80
2023-03-11T14:22:54.353Z,9.80
2023-03-11T14:25:20.739Z,9.70
2023-03-11T14:27:47.168Z,9.60
2023-03-11T14:30:13.546Z,9.60
2023-03-11T14:32:40.111Z,9.50
2023-03-11T14:35:06.542Z,9.40
2023-03-11T14:37:32.987Z,9.40
2023-03-11T14:39:59.424Z,9.30
2023-03-11T14:42:25.872Z,9.30
2023-03-11T14:44:52.272Z,9.20
2023-03-11T14:47:18.725Z,9.20
2023-03-11T14:49:45.118Z,9.10
2023-03-11T14:52:11.493Z,9.00
2023-03-11T14:54:37.858Z,9.00
2023-03-11T14:57:04.216Z,8.90
2023-03-11T14:59:30.595Z,8.80
2023-03-11T15:01:56.976Z,8.80
2023-03-11T15:04:23.369Z,8.80
2023-03-11T15:06:49.806Z,8.80
2023-03-11T15:09:16.216Z,8.70
2023-03-11T15:11:42.644Z,8.70
2023-03-11T15:14:09.200Z,8.60
2023-03-11T15:16:35.623Z,8.60
2023-03-11T15:19:02.137Z,8.50
2023-03-11T15:21:28.557Z,8.50
2023-03-11T15:23:54.972Z,8.40
2023-03-11T15:26:21.364Z,8.40
2023-03-11T15:28:47.757Z,8.40
2023-03-11T15:31:14.306Z,8.40
2023-03-11T15:33:40.810Z,8.30
2023-03-11T15:36:07.236Z,8.40
2023-03-11T15:38:33.702Z,8.40
2023-03-11T15:41:00.162Z,8.40
2023-03-11T15:43:26.635Z,8.30
2023-03-11T15:45:53.087Z,8.20
2023-03-11T15:48:19.546Z,8.20
2023-03-11T15:50:52.882Z,8.20
2023-03-11T15:53:20.010Z,8.20
2023-03-11T15:55:46.388Z,8.30
2023-03-11T15:58:12.764Z,8.40
2023-03-11T16:00:39.175Z,8.60
2023-03-11T16:03:05.605Z,8.70
2023-03-11T16:05:31.985Z,8.80
2023-03-11T16:07:58.357Z,8.80
2023-03-11T16:10:24.736Z,8.80
2023-03-11T16:12:51.145Z,8.70
2023-03-11T16:15:17.551Z,8.70
2023-03-11T16:17:49.689Z,8.70
2023-03-11T16:20:16.694Z,8.70
2023-03-11T16:22:43.110Z,8.70
2023-03-11T16:25:09.550Z,8.70
2023-03-11T16:27:35.935Z,8.70
2023-03-11T16:30:02.442Z,8.60
2023-03-11T16:32:29.072Z,8.60
2023-03-11T16:34:55.639Z,8.50
2023-03-11T16:37:22.071Z,8.40
2023-03-11T16:39:48.498Z,8.40
2023-03-11T16:42:14.873Z,8.30
2023-03-11T16:44:41.314Z,8.20
2023-03-11T16:47:07.799Z,8.20
2023-03-11T16:49:34.266Z,8.20
2023-03-11T16:52:00.770Z,8.10
2023-03-11T16:54:27.255Z,8.00
2023-03-11T16:56:53.712Z,8.00
2023-03-11T16:59:20.163Z,7.90
2023-03-11T17:01:46.642Z,7.80
2023-03-11T17:04:13.090Z,7.80
2023-03-11T17:06:39.753Z,7.70
2023-03-11T17:09:06.136Z,7.60
2023-03-11T17:11:32.611Z,7.50
2023-03-11T17:14:13.852Z,7.50
2023-03-11T17:16:42.154Z,7.40
2023-03-11T17:19:08.666Z,7.30
2023-03-11T17:21:35.076Z,7.30
2023-03-11T17:24:01.501Z,7.20
2023-03-11T17:26:27.939Z,7.20
2023-03-11T17:28:54.415Z,7.10
2023-03-11T17:31:20.867Z,7.00
2023-03-11T17:33:47.338Z,6.90
2023-03-11T17:36:13.802Z,6.70
2023-03-11T17:38:40.227Z,6.60
2023-03-11T17:41:06.669Z,6.50
2023-03-11T17:43:33.142Z,6.40
2023-03-11T17:45:59.547Z,6.30
2023-03-11T17:48:25.989Z,6.20
2023-03-11T17:50:52.646Z,6.20
2023-03-11T17:53:19.084Z,6.00
2023-03-11T17:55:45.522Z,5.90
2023-03-11T17:58:11.948Z,5.90
2023-03-11T18:00:38.375Z,5.80
2023-03-11T18:03:04.901Z,5.70
2023-03-11T18:05:31.392Z,5.70
2023-03-11T18:07:57.805Z,5.60
2023-03-11T18:10:24.203Z,5.60
2023-03-11T18:12:50.620Z,5.50
2023-03-11T18:15:17.016Z,5.40
2023-03-11T18:17:43.451Z,5.40
2023-03-11T18:20:09.876Z,5.30
2023-03-11T18:22:37.276Z,5.30
2023-03-11T18:25:05.166Z,5.20
2023-03-11T18:27:31.566Z,5.10
2023-03-11T18:29:57.947Z,5.10
2023-03-11T18:32:24.368Z,5.00
2023-03-11T18:34:50.895Z,5.00
2023-03-11T18:37:17.272Z,4.90
2023-03-11T18:39:43.637Z,4.90
2023-03-11T18:42:10.016Z,4.80
2023-03-11T18:44:37.020Z,4.80
2023-03-11T18:47:03.561Z,4.70
2023-03-11T18:49:29.966Z,4.70
2023-03-11T18:51:56.469Z,4.60
2023-03-11T18:54:22.936Z,4.60
2023-03-11T18:56:49.325Z,4.50
2023-03-11T18:59:15.801Z,4.40
2023-03-11T19:01:42.241Z,4.30
2023-03-11T19:04:08.814Z,4.30
2023-03-11T19:06:35.252Z,4.30
2023-03-11T19:09:01.739Z,4.20
2023-03-11T19:11:28.165Z,4.20
2023-03-11T19:13:54.591Z,4.20
2023-03-11T19:16:21.092Z,4.30
2023-03-11T19:18:47.797Z,4.20
2023-03-11T19:21:14.307Z,4.20
2023-03-11T19:23:40.757Z,4.10
2023-03-11T19:26:07.206Z,4.10
2023-03-11T19:28:33.746Z,4.10
2023-03-11T19:31:00.276Z,4.00
2023-03-11T19:33:26.781Z,4.00
2023-03-11T19:35:53.260Z,4.00
2023-03-11T19:38:19.749Z,4.00
2023-03-11T19:40:46.201Z,4.00
2023-03-11T19:43:12.714Z,4.00
2023-03-11T19:45:39.171Z,4.10
2023-03-11T19:48:05.608Z,4.10
2023-03-11T19:50:32.045Z,4.00
2023-03-11T19:52:58.531Z,3.90
2023-03-11T19:55:25.075Z,3.80
2023-03-11T19:57:51.684Z,3.80
2023-03-11T20:00:18.220Z,3.80
2023-03-11T20:02:44.753Z,3.90
2023-03-11T20:05:11.202Z,3.90
2023-03-11T20:07:37.804Z,3.90
2023-03-11T20:10:04.315Z,3.90
2023-03-11T20:12:30.771Z,3.90
2023-03-11T20:14:57.152Z,3.90
2023-03-11T20:17:23.640Z,3.90
2023-03-11T20:19:50.184Z,3.90
2023-03-11T20:22:16.623Z,3.80
2023-03-11T20:24:43.115Z,3.90
2023-03-11T20:27:09.828Z,3.80
2023-03-11T20:29:36.347Z,3.80
2023-03-11T20:32:02.817Z,3.80
2023-03-11T20:34:29.327Z,3.80
2023-03-11T20:36:55.843Z,3.70
2023-03-11T20:39:22.391Z,3.70
2023-03-11T20:41:48.892Z,3.70
2023-03-11T20:44:16.522Z,3.70
2023-03-11T20:46:43.078Z,3.60
2023-03-11T20:49:09.580Z,3.60
2023-03-11T20:51:36.022Z,3.60
2023-03-11T20:54:02.611Z,3.60
2023-03-11T20:56:29.143Z,3.50
2023-03-11T20:58:55.578Z,3.40
2023-03-11T21:01:22.035Z,3.40
2023-03-11T21:03:48.634Z,3.40
2023-03-11T21:06:15.266Z,3.40
2023-03-11T21:08:41.738Z,3.40
2023-03-11T21:11:08.203Z,3.40
2023-03-11T21:13:34.667Z,3.40
2023-03-11T21:16:01.213Z,3.30
2023-03-11T21:18:27.842Z,3.20
2023-03-11T21:20:54.381Z,3.20
2023-03-11T21:23:20.850Z,3.20
2023-03-11T21:25:47.417Z,3.20
2023-03-11T21:28:13.949Z,3.10
2023-03-11T21:30:40.461Z,3.10
2023-03-11T21:33:06.954Z,3.10
2023-03-11T21:35:33.462Z,3.10
2023-03-11T21:38:00.038Z,3.10
2023-03-11T21:40:26.486Z,3.10
2023-03-11T21:42:53.041Z,3.00
2023-03-11T21:45:19.453Z,3.10
2023-03-11T21:47:45.969Z,3.00
2023-03-11T21:50:12.462Z,3.00
2023-03-11T21:52:38.923Z,3.00
2023-03-11T21:55:05.386Z,3.00
2023-03-11T21:57:31.948Z,3.10
2023-03-11T21:59:58.507Z,3.10
2023-03-11T22:02:25.088Z,3.10
2023-03-11T22:04:51.727Z,3.20
2023-03-11T22:07:18.159Z,3.20
2023-03-11T22:09:44.639Z,3.20
2023-03-11T22:12:11.104Z,3.20
2023-03-11T22:14:37.582Z,3.20
2023-03-11T22:17:04.194Z,3.10
2023-03-11T22:19:30.664Z,3.20
2023-03-11T22:21:57.287Z,3.20
2023-03-11T22:24:23.810Z,3.10
2023-03-11T22:26:50.217Z,3.20
2023-03-11T22:29:16.650Z,3.20
2023-03-11T22:31:43.123Z,3.20
2023-03-11T22:34:09.848Z,3.20
2023-03-11T22:36:36.318Z,3.20
2023-03-11T22:39:02.769Z,3.20
2023-03-11T22:41:29.195Z,3.20
2023-03-11T22:43:55.608Z,3.20
2023-03-11T22:46:22.096Z,3.20
2023-03-11T22:48:48.504Z,3.20
2023-03-11T22:51:14.922Z,3.20
2023-03-11T22:53:41.358Z,3.20
2023-03-11T22:56:07.770Z,3.20
2023-03-11T22:58:34.178Z,3.20
2023-03-11T23:01:00.659Z,3.10
2023-03-11T23:03:27.250Z,3.10
2023-03-11T23:05:53.692Z,3.10
2023-03-11T23:08:20.127Z,3.10
2023-03-11T23:10:46.583Z,3.10
2023-03-11T23:13:13.010Z,3.10
2023-03-11T23:15:39.865Z,3.10
2023-03-11T23:18:06.263Z,3.10
2023-03-11T23:20:32.678Z,3.20
2023-03-11T23:22:59.060Z,3.20
2023-03-11T23:25:25.455Z,3.10
2023-03-11T23:27:51.895Z,3.10
2023-03-11T23:30:18.354Z,3.10
2023-03-11T23:32:44.910Z,3.20
2023-03-11T23:35:11.441Z,3.20
2023-03-11T23:37:37.861Z,3.10
2023-03-11T23:40:04.321Z,3.20
2023-03-11T23:42:30.762Z,3.20
2023-03-11T23:44:57.196Z,3.20
2023-03-11T23:47:23.586Z,3.20
2023-03-11T23:49:50.057Z,3.20
2023-03-11T23:52:16.421Z,3.20
2023-03-11T23:54:42.890Z,3.20
2023-03-11T23:57:09.298Z,3.20
2023-03-11T23:59:35.698Z,3.30
